Laguna Airport


Codes: SSLA/0
Name: Laguna Airport
City: Laguna
Country: Brazil
Elevation: 20 ft.

Photos at Laguna Airport


   Photos courtesy of SpottingLog. You can add your own sightings and photos by signing up for a free trial today.



No photos found.

Weather at Laguna Airport


Time (UTC)DescriptionTempratureWindCloud coverageVisibilityPressureHumidity
18-Apr-2024 00:00Clear Sky21°C11 mph, SW0%10000m1015hPa69%
18-Apr-2024 03:00Clear Sky18°C7 mph, W1%10000m1016hPa77%
18-Apr-2024 06:00Clear Sky16°C4 mph, W1%10000m1016hPa87%
18-Apr-2024 09:00Clear Sky15°C4 mph, W4%10000m1018hPa84%
18-Apr-2024 12:00Clear Sky19°C4 mph, W2%10000m1019hPa53%
18-Apr-2024 15:00Clear Sky23°C4 mph, SE0%10000m1018hPa37%
18-Apr-2024 18:00Clear Sky22°C7 mph, SE0%10000m1017hPa51%
18-Apr-2024 21:00Clear Sky19°C2 mph, SE0%10000m1018hPa64%
19-Apr-2024 00:00Clear Sky17°C4 mph, NW0%10000m1020hPa73%
19-Apr-2024 03:00Clear Sky17°C4 mph, NW1%10000m1019hPa78%
19-Apr-2024 06:00Clear Sky16°C4 mph, NW2%10000m1018hPa84%
19-Apr-2024 09:00Clear Sky15°C4 mph, NW0%10000m1019hPa88%
19-Apr-2024 12:00Few Clouds19°C2 mph, NW11%10000m1021hPa69%
19-Apr-2024 15:00Clear Sky22°C7 mph, E7%10000m1019hPa60%
19-Apr-2024 18:00Clear Sky23°C9 mph, NE10%10000m1018hPa63%
19-Apr-2024 21:00Few Clouds20°C7 mph, NE20%10000m1019hPa78%
20-Apr-2024 00:00Scattered Clouds19°C4 mph, N34%10000m1020hPa86%
20-Apr-2024 03:00Scattered Clouds17°C4 mph, N40%10000m1020hPa92%
20-Apr-2024 06:00Few Clouds17°C4 mph, N23%10000m1019hPa93%
20-Apr-2024 09:00Clear Sky17°C7 mph, N5%10000m1019hPa91%
20-Apr-2024 12:00Clear Sky20°C7 mph, N4%10000m1020hPa71%
20-Apr-2024 15:00Clear Sky25°C9 mph, NE0%10000m1018hPa52%
20-Apr-2024 18:00Clear Sky25°C13 mph, NE0%10000m1016hPa59%
20-Apr-2024 21:00Clear Sky21°C11 mph, NE0%10000m1017hPa80%
21-Apr-2024 00:00Clear Sky19°C9 mph, N0%10000m1018hPa91%
21-Apr-2024 03:00Clear Sky18°C9 mph, N1%10000m1017hPa90%
21-Apr-2024 06:00Clear Sky17°C9 mph, N1%10000m1016hPa90%
21-Apr-2024 09:00Clear Sky17°C7 mph, N1%10000m1016hPa89%
21-Apr-2024 12:00Clear Sky21°C7 mph, N1%10000m1017hPa68%
21-Apr-2024 15:00Clear Sky25°C9 mph, NE0%10000m1015hPa54%
21-Apr-2024 18:00Clear Sky25°C13 mph, NE0%10000m1013hPa64%
21-Apr-2024 21:00Clear Sky22°C11 mph, NE0%10000m1013hPa84%
22-Apr-2024 00:00Clear Sky19°C9 mph, N0%10000m1014hPa95%
22-Apr-2024 03:00Clear Sky19°C7 mph, N1%10000m1014hPa93%
22-Apr-2024 06:00Scattered Clouds18°C4 mph, N26%10000m1013hPa91%
22-Apr-2024 09:00Few Clouds17°C4 mph, W20%10000m1014hPa86%
22-Apr-2024 12:00Scattered Clouds21°C4 mph, SW26%10000m1016hPa67%
22-Apr-2024 15:00Scattered Clouds25°C2 mph, SE32%10000m1014hPa52%
22-Apr-2024 18:00Scattered Clouds23°C7 mph, E45%10000m1012hPa66%
22-Apr-2024 21:00Overcast Clouds21°C2 mph, NE99%10000m1013hPa82%